الصفحة الرئيسية
METAR-TAF:

METAR-TAF

مطار :

زغرب, كرواتيا

دائرة عرض: 45-44N, خط طول: 016-04E, ارتفاع: 106 متر

مراقبة الطقس الحالي

تاريخ ووقت الإصدار 34 دقيقة قبل الساعة 00:00UTC
ريح 1 عقدةمن اتجاهات متغيرة
درجة الحرارة 10°درجة مئوية
الرطوبة 93%
ضغط 1021 hPa
الرؤية 10 كم أو أكثر
الغيوم لا تقل 1500 م ولا وجود لمزنة ركامية السحاب الأسود

METAR: LDZA 170000Z VRB01KT CAVOK 10/09 Q1021 NOSIG

زمن: 02:34 (00:34 UTC)

توقعات

تاريخ ووقت الإصدار 1ساعة و 9 دقيقة قبل الساعة 23:25UTC
التوقعات صالحة من17 الساعة 00 UTC إلى 18 الساعة 00 UTC
ريح 2 عقدةمن اتجاهات متغيرة
الرؤية 10 كم أو أكثر
الغيوم لا تقل 1500 م ولا وجود لمزنة ركامية السحاب الأسود
نظرية الاحتمالات 40%
من 17 الساعة 00 UTC إلى 17 الساعة 08 UTC
الرؤية: 4000 متر
غشاء
نظرية الاحتمالات 30% :
مؤقت
من 17 الساعة 03 UTC إلى 17 الساعة 07 UTC
الرؤية: 1500 متر
غيوم مفككة على ارتفاع 300 قدم
رقع من الضباب

TAF: LDZA 162325Z 1700/1800 VRB02KT CAVOK TX17/1713Z TN09/1704Z PROB40 1700/1708 4000 BR PROB30 TEMPO 1703/1707 1500 BCFG BKN003

أرصاد الطقس والتوقعات من أكثر من 4000 مطار (تقارير الطقس للمطار METAR والتنبؤ بالطقس بالمطارTAF).

المحطات المتاحة هي النقط الصفراء والحمراء على الخريطة.

حرك المؤشر فوق النقطة لمعرفة اسم المحطة.

ثم انقر لمعرفة أرصاد وتوقعات الطقس.

لتغيير الخارطة: اضغط على الأزرار الخضراء مع رمز الصليب الأسود للتكبير. على الزر الأخضر مع شرطة للتصغير، أو على الأسهم الخضراء للخرائط المجاورة.


METAR-TAF: